Time,TemperatureF,DewpointF,PressureIn,WindDirection,WindDirectionDegrees,WindSpeedMPH,WindSpeedGustMPH,Humidity,HourlyPrecipIn,Conditions,Clouds,dailyrainin,SoftwareType,DateUTC
2013-01-21 00:16:00,15.6,10.0,29.97,NW,305,3.0,-999.0,79,-99.99,,,0.00,weatherlink.com 1.10,2013-01-21 05:16:00,
2013-01-21 00:31:00,15.4,10.0,29.97,NW,324,0.0,-999.0,79,-99.99,,,0.00,weatherlink.com 1.10,2013-01-21 05:31:00,
2013-01-21 00:46:00,15.2,10.0,29.97,NW,323,0.0,-999.0,80,-99.99,,,0.00,weatherlink.com 1.10,2013-01-21 05:46:00,
2013-01-21 01:01:00,14.9,10.0,29.97,NW,323,0.0,-999.0,80,-99.99,,,0.00,weatherlink.com 1.10,2013-01-21 06:01:00,
2013-01-21 01:16:00,14.6,10.0,29.97,NW,323,0.0,-999.0,80,-99.99,,,0.00,weatherlink.com 1.10,2013-01-21 06:16:00,
2013-01-21 01:31:00,14.8,9.0,29.97,NW,323,0.0,-999.0,79,-99.99,,,0.00,weatherlink.com 1.10,2013-01-21 06:31:00,
2013-01-21 01:46:00,14.9,9.0,29.97,NNW,329,1.0,-999.0,77,-99.99,,,0.00,weatherlink.com 1.10,2013-01-21 06:46:00,
2013-01-21 02:01:00,14.9,8.0,29.97,NNW,329,2.0,-999.0,75,-99.99,,,0.00,weatherlink.com 1.10,2013-01-21 07:01:00,
2013-01-21 02:16:00,14.6,8.0,29.98,NNW,329,2.0,-999.0,76,-99.99,,,0.00,weatherlink.com 1.10,2013-01-21 07:16:00,
2013-01-21 02:31:00,14.6,9.0,29.98,NNW,334,3.0,-999.0,79,-99.99,,,0.00,weatherlink.com 1.10,2013-01-21 07:31:00,
2013-01-21 02:46:00,14.4,9.0,29.98,NNW,334,0.0,-999.0,79,-99.99,,,0.00,weatherlink.com 1.10,2013-01-21 07:46:00,
2013-01-21 03:01:00,14.8,8.0,29.98,NNW,334,3.0,-999.0,74,-99.99,,,0.00,weatherlink.com 1.10,2013-01-21 08:01:00,
2013-01-21 03:16:00,14.8,8.0,29.98,North,351,0.0,-999.0,73,-99.99,,,0.00,weatherlink.com 1.10,2013-01-21 08:16:00,
2013-01-21 03:31:00,14.8,8.0,29.98,North,351,0.0,-999.0,73,-99.99,,,0.00,weatherlink.com 1.10,2013-01-21 08:31:00,
2013-01-21 03:46:00,14.8,8.0,29.98,North,351,0.0,-999.0,73,-99.99,,,0.00,weatherlink.com 1.10,2013-01-21 08:46:00,
2013-01-21 04:01:00,14.8,8.0,29.97,North,351,0.0,-999.0,73,-99.99,,,0.00,weatherlink.com 1.10,2013-01-21 09:01:00,
2013-01-21 04:16:00,14.8,7.0,29.97,North,351,0.0,-999.0,72,-99.99,,,0.00,weatherlink.com 1.10,2013-01-21 09:16:00,
2013-01-21 04:31:00,14.9,7.0,29.97,North,351,0.0,-999.0,70,-99.99,,,0.00,weatherlink.com 1.10,2013-01-21 09:31:00,
2013-01-21 04:46:00,14.8,6.0,29.97,North,351,0.0,-999.0,69,-99.99,,,0.00,weatherlink.com 1.10,2013-01-21 09:46:00,
2013-01-21 05:01:00,14.6,6.0,29.98,NNE,15,0.0,-999.0,69,-99.99,,,0.00,weatherlink.com 1.10,2013-01-21 10:01:00,
2013-01-21 05:16:00,14.4,6.0,29.98,NNE,15,0.0,-999.0,69,-99.99,,,0.00,weatherlink.com 1.10,2013-01-21 10:16:00,
2013-01-21 05:31:00,14.3,7.0,29.97,NNE,15,0.0,-999.0,71,-99.99,,,0.00,weatherlink.com 1.10,2013-01-21 10:31:00,
2013-01-21 05:46:00,14.3,7.0,29.97,NNE,15,0.0,-999.0,72,-99.99,,,0.00,weatherlink.com 1.10,2013-01-21 10:46:00,
2013-01-21 06:01:00,14.0,7.0,29.97,NNE,15,0.0,-999.0,73,-99.99,,,0.00,weatherlink.com 1.10,2013-01-21 11:01:00,
2013-01-21 06:16:00,14.0,7.0,29.98,NNE,15,0.0,-999.0,72,-99.99,,,0.00,weatherlink.com 1.10,2013-01-21 11:16:00,
2013-01-21 06:31:00,14.0,7.0,29.97,NNE,15,0.0,-999.0,72,-99.99,,,0.00,weatherlink.com 1.10,2013-01-21 11:31:00,
2013-01-21 06:46:00,14.1,7.0,29.98,NNE,15,0.0,-999.0,73,-99.99,,,0.00,weatherlink.com 1.10,2013-01-21 11:46:00,
2013-01-21 07:01:00,14.1,7.0,29.98,NNE,15,0.0,-999.0,74,-99.99,,,0.00,weatherlink.com 1.10,2013-01-21 12:01:00,
2013-01-21 07:16:00,14.3,8.0,29.98,NNE,25,0.0,-999.0,75,-99.99,,,0.00,weatherlink.com 1.10,2013-01-21 12:16:00,
2013-01-21 07:31:00,14.3,7.0,29.98,NNE,32,0.0,-999.0,74,-99.99,,,0.00,weatherlink.com 1.10,2013-01-21 12:31:00,
2013-01-21 07:46:00,14.3,7.0,29.98,NNE,33,0.0,-999.0,74,-99.99,,,0.00,weatherlink.com 1.10,2013-01-21 12:46:00,
2013-01-21 08:01:00,14.3,8.0,29.98,NNE,33,0.0,-999.0,75,-99.99,,,0.00,weatherlink.com 1.10,2013-01-21 13:01:00,
2013-01-21 08:16:00,14.4,8.0,29.98,NE,36,0.0,-999.0,74,-99.99,,,0.00,weatherlink.com 1.10,2013-01-21 13:16:00,
2013-01-21 08:31:00,14.4,7.0,29.98,NE,42,0.0,-999.0,73,-99.99,,,0.00,weatherlink.com 1.10,2013-01-21 13:31:00,
2013-01-21 08:46:00,14.6,7.0,29.98,NE,42,0.0,-999.0,73,-99.99,,,0.00,weatherlink.com 1.10,2013-01-21 13:46:00,
2013-01-21 09:01:00,15.1,8.0,29.98,NE,42,0.0,-999.0,73,-99.99,,,0.00,weatherlink.com 1.10,2013-01-21 14:01:00,
2013-01-21 09:16:00,16.1,9.0,29.97,NE,42,0.0,-999.0,73,-99.99,,,0.00,weatherlink.com 1.10,2013-01-21 14:16:00,
2013-01-21 09:31:00,16.7,9.0,29.97,NE,48,0.0,-999.0,73,-99.99,,,0.00,weatherlink.com 1.10,2013-01-21 14:31:00,
2013-01-21 10:01:00,18.0,10.0,29.97,ENE,71,0.0,-999.0,70,-99.99,,,0.00,weatherlink.com 1.10,2013-01-21 15:01:00,
2013-01-21 10:16:00,18.9,10.0,29.97,ENE,78,0.0,-999.0,69,-99.99,,,0.00,weatherlink.com 1.10,2013-01-21 15:16:00,
2013-01-21 10:31:00,18.6,10.0,29.97,ENE,78,0.0,-999.0,70,-99.99,,,0.00,weatherlink.com 1.10,2013-01-21 15:31:00,
2013-01-21 10:46:00,18.9,10.0,29.96,ENE,78,0.0,-999.0,69,-99.99,,,0.00,weatherlink.com 1.10,2013-01-21 15:46:00,
2013-01-21 11:01:00,19.4,10.0,29.95,ENE,78,0.0,-999.0,68,-99.99,,,0.00,weatherlink.com 1.10,2013-01-21 16:01:00,
2013-01-21 11:16:00,18.9,10.0,29.94,ENE,78,0.0,-999.0,67,-99.99,,,0.00,weatherlink.com 1.10,2013-01-21 16:16:00,
2013-01-21 11:31:00,18.6,10.0,29.93,ENE,75,2.0,-999.0,70,-99.99,,,0.00,weatherlink.com 1.10,2013-01-21 16:31:00,
2013-01-21 11:46:00,18.4,11.0,29.92,ENE,75,2.0,-999.0,73,-99.99,,,0.00,weatherlink.com 1.10,2013-01-21 16:46:00,
2013-01-21 12:01:00,18.6,11.0,29.91,ENE,75,0.0,-999.0,72,-99.99,,,0.00,weatherlink.com 1.10,2013-01-21 17:01:00,
2013-01-21 12:16:00,19.1,11.0,29.90,ENE,75,0.0,-999.0,72,-99.99,,,0.00,weatherlink.com 1.10,2013-01-21 17:16:00,
2013-01-21 12:31:00,19.2,12.0,29.88,ENE,74,0.0,-999.0,72,-99.99,,,0.00,weatherlink.com 1.10,2013-01-21 17:31:00,
2013-01-21 13:01:00,19.7,12.0,29.87,ENE,73,2.0,-999.0,72,-99.99,,,0.00,weatherlink.com 1.10,2013-01-21 18:01:00,
2013-01-21 13:16:00,18.6,12.0,29.86,North,5,3.0,-999.0,76,-99.99,,,0.00,weatherlink.com 1.10,2013-01-21 18:16:00,
2013-01-21 13:31:00,18.6,13.0,29.85,North,5,0.0,-999.0,78,-99.99,,,0.00,weatherlink.com 1.10,2013-01-21 18:31:00,
2013-01-21 13:46:00,19.1,14.0,29.85,North,5,0.0,-999.0,80,-99.99,,,0.00,weatherlink.com 1.10,2013-01-21 18:46:00,
2013-01-21 14:01:00,18.8,14.0,29.84,North,5,0.0,-999.0,80,-99.99,,,0.00,weatherlink.com 1.10,2013-01-21 19:01:00,
2013-01-21 14:16:00,18.4,14.0,29.83,North,5,2.0,-999.0,82,-99.99,,,0.00,weatherlink.com 1.10,2013-01-21 19:16:00,
2013-01-21 14:31:00,18.6,14.0,29.82,North,5,2.0,-999.0,83,-99.99,,,0.00,weatherlink.com 1.10,2013-01-21 19:31:00,
2013-01-21 14:47:00,19.2,15.0,29.82,North,5,0.0,-999.0,82,-99.99,,,0.00,weatherlink.com 1.10,2013-01-21 19:47:00,
2013-01-21 15:02:00,19.9,15.0,29.82,North,5,0.0,-999.0,80,-99.99,,,0.00,weatherlink.com 1.10,2013-01-21 20:02:00,
2013-01-21 15:17:00,20.0,15.0,29.81,NNE,21,0.0,-999.0,80,-99.99,,,0.00,weatherlink.com 1.10,2013-01-21 20:17:00,
2013-01-21 15:32:00,20.0,15.0,29.81,NNE,22,0.0,-999.0,80,-99.99,,,0.00,weatherlink.com 1.10,2013-01-21 20:32:00,
2013-01-21 15:47:00,20.0,15.0,29.81,NNE,26,0.0,-999.0,81,-99.99,,,0.00,weatherlink.com 1.10,2013-01-21 20:47:00,
2013-01-21 16:02:00,19.9,15.0,29.80,NNE,28,2.0,-999.0,80,-99.99,,,0.00,weatherlink.com 1.10,2013-01-21 21:02:00,
2013-01-21 16:17:00,19.2,15.0,29.80,NNW,341,0.0,-999.0,84,-99.99,,,0.00,weatherlink.com 1.10,2013-01-21 21:17:00,
2013-01-21 16:32:00,19.1,16.0,29.80,NNW,341,0.0,-999.0,86,-99.99,,,0.00,weatherlink.com 1.10,2013-01-21 21:32:00,
2013-01-21 16:47:00,18.9,16.0,29.80,NNW,341,1.0,-999.0,87,-99.99,,,0.00,weatherlink.com 1.10,2013-01-21 21:47:00,
2013-01-21 17:02:00,19.1,16.0,29.80,NNW,341,0.0,-999.0,88,-99.99,,,0.00,weatherlink.com 1.10,2013-01-21 22:02:00,
2013-01-21 17:17:00,19.1,16.0,29.81,NW,320,3.0,-999.0,88,-99.99,,,0.00,weatherlink.com 1.10,2013-01-21 22:17:00,
2013-01-21 17:32:00,19.2,16.0,29.82,NW,314,0.0,-999.0,88,-99.99,,,0.00,weatherlink.com 1.10,2013-01-21 22:32:00,
2013-01-21 17:47:00,19.1,16.0,29.82,NW,315,0.0,-999.0,88,-99.99,,,0.00,weatherlink.com 1.10,2013-01-21 22:47:00,
2013-01-21 18:02:00,18.9,16.0,29.82,NW,315,0.0,-999.0,87,-99.99,,,0.00,weatherlink.com 1.10,2013-01-21 23:02:00,
2013-01-21 18:17:00,19.1,16.0,29.82,NW,315,0.0,-999.0,87,-99.99,,,0.00,weatherlink.com 1.10,2013-01-21 23:17:00,
2013-01-21 18:32:00,19.2,16.0,29.82,NW,315,0.0,-999.0,86,-99.99,,,0.00,weatherlink.com 1.10,2013-01-21 23:32:00,
2013-01-21 18:47:00,19.1,16.0,29.82,NW,315,0.0,-999.0,86,-99.99,,,0.00,weatherlink.com 1.10,2013-01-21 23:47:00,
2013-01-21 19:02:00,18.8,15.0,29.82,NW,315,0.0,-999.0,86,-99.99,,,0.00,weatherlink.com 1.10,2013-01-22 00:02:00,
2013-01-21 19:17:00,18.6,15.0,29.81,NW,315,0.0,-999.0,86,-99.99,,,0.00,weatherlink.com 1.10,2013-01-22 00:17:00,
2013-01-21 19:32:00,18.4,15.0,29.82,NW,315,0.0,-999.0,86,-99.99,,,0.00,weatherlink.com 1.10,2013-01-22 00:32:00,
2013-01-21 19:47:00,18.3,15.0,29.82,NW,315,0.0,-999.0,86,-99.99,,,0.00,weatherlink.com 1.10,2013-01-22 00:47:00,
2013-01-21 20:02:00,18.4,15.0,29.82,NW,315,0.0,-999.0,86,-99.99,,,0.00,weatherlink.com 1.10,2013-01-22 01:02:00,
2013-01-21 20:17:00,18.4,15.0,29.81,NW,315,0.0,-999.0,86,-99.99,,,0.00,weatherlink.com 1.10,2013-01-22 01:17:00,
2013-01-21 20:32:00,18.3,15.0,29.81,NW,315,0.0,-999.0,86,-99.99,,,0.00,weatherlink.com 1.10,2013-01-22 01:32:00,
2013-01-21 20:47:00,18.1,15.0,29.81,WNW,296,0.0,-999.0,86,-99.99,,,0.00,weatherlink.com 1.10,2013-01-22 01:47:00,
2013-01-21 21:02:00,17.7,14.0,29.80,WNW,296,0.0,-999.0,85,-99.99,,,0.00,weatherlink.com 1.10,2013-01-22 02:02:00,
2013-01-21 21:17:00,16.7,13.0,29.80,WNW,296,0.0,-999.0,85,-99.99,,,0.00,weatherlink.com 1.10,2013-01-22 02:17:00,
2013-01-21 21:32:00,16.2,13.0,29.80,WNW,296,0.0,-999.0,85,-99.99,,,0.00,weatherlink.com 1.10,2013-01-22 02:32:00,
2013-01-21 21:47:00,15.7,12.0,29.79,SSE,149,0.0,-999.0,86,-99.99,,,0.00,weatherlink.com 1.10,2013-01-22 02:47:00,
2013-01-21 22:02:00,15.2,12.0,29.78,SSE,149,0.0,-999.0,86,-99.99,,,0.00,weatherlink.com 1.10,2013-01-22 03:02:00,
2013-01-21 22:17:00,14.0,10.0,29.78,SSE,149,0.0,-999.0,85,-99.99,,,0.00,weatherlink.com 1.10,2013-01-22 03:17:00,
2013-01-21 22:32:00,12.6,9.0,29.78,SSE,149,0.0,-999.0,85,-99.99,,,0.00,weatherlink.com 1.10,2013-01-22 03:32:00,
2013-01-21 22:47:00,11.9,9.0,29.77,SSE,149,0.0,-999.0,87,-99.99,,,0.00,weatherlink.com 1.10,2013-01-22 03:47:00,
2013-01-21 23:02:00,11.9,9.0,29.77,SSE,149,0.0,-999.0,88,-99.99,,,0.00,weatherlink.com 1.10,2013-01-22 04:02:00,
2013-01-21 23:17:00,11.6,9.0,29.77,SSE,149,0.0,-999.0,87,-99.99,,,0.00,weatherlink.com 1.10,2013-01-22 04:17:00,
2013-01-21 23:32:00,11.4,8.0,29.77,SSE,150,0.0,-999.0,87,-99.99,,,0.00,weatherlink.com 1.10,2013-01-22 04:32:00,
2013-01-21 23:47:00,12.1,9.0,29.76,SSE,150,0.0,-999.0,87,-99.99,,,0.00,weatherlink.com 1.10,2013-01-22 04:47:00,